createdAt,value
2018-06-28T00:00:02.523Z,79.50
2018-06-28T00:05:01.518Z,79.91
2018-06-28T00:10:01.548Z,79.91
2018-06-28T00:15:01.544Z,79.92
2018-06-28T00:20:01.565Z,79.92
2018-06-28T00:25:01.497Z,80.12
2018-06-28T00:30:01.531Z,80.12
2018-06-28T00:35:01.474Z,79.67
2018-06-28T00:40:01.460Z,79.67
2018-06-28T00:45:01.498Z,80.35
2018-06-28T00:55:01.442Z,80.70
2018-06-28T01:00:02.460Z,80.70
2018-06-28T01:05:01.458Z,83.26
2018-06-28T01:15:01.654Z,81.96
2018-06-28T01:25:01.472Z,83.18
2018-06-28T01:30:01.485Z,83.18
2018-06-28T01:41:01.388Z,83.16
2018-06-28T01:51:01.457Z,81.49
2018-06-28T01:56:01.442Z,80.74
2018-06-28T02:01:01.430Z,80.74
2018-06-28T02:06:01.466Z,80.53
2018-06-28T02:11:01.510Z,80.53
2018-06-28T02:16:01.502Z,80.38
2018-06-28T02:26:01.494Z,80.79
2018-06-28T02:36:01.456Z,80.81
2018-06-28T02:51:01.441Z,80.62
2018-06-28T02:56:01.468Z,81.24
2018-06-28T03:11:01.542Z,81.08
2018-06-28T03:26:01.529Z,82.42
2018-06-28T03:41:01.329Z,82.16
2018-06-28T03:56:01.524Z,82.42
2018-06-28T04:11:01.508Z,83.68
2018-06-28T04:16:01.502Z,84.26
2018-06-28T04:26:01.489Z,84.76
2018-06-28T04:31:01.589Z,84.76
2018-06-28T04:36:01.479Z,85.62
2018-06-28T04:41:01.891Z,85.62
2018-06-28T04:46:01.564Z,85.66
2018-06-28T04:51:01.857Z,85.66
2018-06-28T04:56:01.914Z,86.73
2018-06-28T05:01:01.721Z,86.73
2018-06-28T05:06:01.520Z,81.15
2018-06-28T05:11:01.541Z,81.15
2018-06-28T05:16:01.549Z,83.20
2018-06-28T05:21:01.511Z,83.20
2018-06-28T05:26:01.514Z,85.90
2018-06-28T05:31:01.516Z,85.90
2018-06-28T05:36:01.474Z,86.80
2018-06-28T05:41:01.522Z,86.80
2018-06-28T05:46:01.562Z,86.30
2018-06-28T05:51:01.802Z,86.30
2018-06-28T05:56:01.819Z,84.47
2018-06-28T06:01:01.341Z,84.47
2018-06-28T06:06:01.512Z,82.71
2018-06-28T06:11:01.541Z,82.71
2018-06-28T06:16:01.584Z,78.46
2018-06-28T06:21:01.544Z,78.46
2018-06-28T06:26:01.681Z,74.23
2018-06-28T06:31:01.389Z,74.23
2018-06-28T06:36:01.551Z,71.31
2018-06-28T06:41:01.821Z,71.31
2018-06-28T06:46:01.555Z,69.10
2018-06-28T06:51:01.775Z,69.10
2018-06-28T06:56:01.516Z,65.82
2018-06-28T07:01:01.609Z,65.82
2018-06-28T07:06:01.571Z,66.40
2018-06-28T07:11:01.550Z,66.40
2018-06-28T07:16:01.848Z,62.30
2018-06-28T07:21:02.577Z,62.30
2018-06-28T07:26:01.756Z,58.04
2018-06-28T07:31:01.537Z,58.04
2018-06-28T07:36:01.601Z,58.06
2018-06-28T07:41:01.811Z,58.06
2018-06-28T07:46:01.529Z,56.75
2018-06-28T07:51:02.530Z,56.75
2018-06-28T07:56:01.558Z,55.35
2018-06-28T08:01:01.542Z,55.35
2018-06-28T08:06:01.557Z,52.88
2018-06-28T08:11:01.864Z,52.88
2018-06-28T08:16:01.540Z,51.50
2018-06-28T08:21:01.608Z,51.50
2018-06-28T08:26:01.613Z,50.59
2018-06-28T08:36:01.759Z,49.10
2018-06-28T08:41:01.615Z,49.10
2018-06-28T08:46:01.730Z,50.93
2018-06-28T08:51:01.605Z,50.93
2018-06-28T08:56:01.763Z,48.54
2018-06-28T09:06:01.619Z,44.83
2018-06-28T09:16:01.382Z,44.84
2018-06-28T09:21:01.674Z,44.84
2018-06-28T09:26:01.500Z,46.80
2018-06-28T09:31:01.512Z,46.80
2018-06-28T09:36:01.518Z,43.79
2018-06-28T09:41:01.827Z,43.79
2018-06-28T09:46:01.532Z,41.76
2018-06-28T09:51:01.627Z,41.76
2018-06-28T09:56:01.505Z,41.16
2018-06-28T10:01:01.532Z,41.16
2018-06-28T10:06:01.538Z,41.79
2018-06-28T10:21:01.587Z,40.31
2018-06-28T10:26:01.547Z,40.92
2018-06-28T10:36:01.815Z,38.06
2018-06-28T10:41:02.061Z,38.06
2018-06-28T10:46:01.535Z,38.25
2018-06-28T10:56:01.672Z,38.13
2018-06-28T11:06:01.535Z,39.32
2018-06-28T11:11:01.632Z,39.32
2018-06-28T11:16:01.535Z,36.67
2018-06-28T11:21:01.557Z,36.67
2018-06-28T11:27:01.584Z,37.92
2018-06-28T11:32:01.527Z,37.92
2018-06-28T11:37:01.780Z,37.80
2018-06-28T11:42:01.661Z,37.80
2018-06-28T11:47:01.571Z,35.41
2018-06-28T11:57:01.510Z,35.73
2018-06-28T12:02:01.553Z,35.73
2018-06-28T12:07:01.535Z,34.58
2018-06-28T12:12:01.585Z,34.58
2018-06-28T12:22:01.618Z,32.64
2018-06-28T12:37:01.528Z,32.09
2018-06-28T12:42:01.625Z,32.09
2018-06-28T12:47:01.487Z,32.53
2018-06-28T12:52:01.533Z,32.53
2018-06-28T13:02:01.398Z,31.68
2018-06-28T13:17:01.391Z,33.89
2018-06-28T13:22:01.578Z,33.89
2018-06-28T13:27:01.544Z,34.29
2018-06-28T13:32:01.584Z,34.29
2018-06-28T13:37:01.557Z,32.26
2018-06-28T13:42:01.970Z,32.26
2018-06-28T13:47:01.538Z,32.32
2018-06-28T14:02:01.363Z,32.33
2018-06-28T14:17:01.399Z,33.11
2018-06-28T14:32:01.388Z,33.94
2018-06-28T14:37:01.522Z,34.27
2018-06-28T14:42:01.981Z,34.27
2018-06-28T14:57:06.539Z,35.39
2018-06-28T15:02:01.563Z,35.39
2018-06-28T15:07:01.584Z,35.65
2018-06-28T15:22:02.551Z,36.01
2018-06-28T15:37:03.606Z,35.26
2018-06-28T15:52:05.930Z,36.28
2018-06-28T16:02:01.349Z,36.12
2018-06-28T16:17:01.534Z,38.65
2018-06-28T16:22:06.699Z,38.65
2018-06-28T16:27:01.924Z,38.84
2018-06-28T16:32:01.596Z,38.84
2018-06-28T16:37:01.936Z,38.67
2018-06-28T16:42:01.632Z,38.67
2018-06-28T16:47:01.647Z,39.56
2018-06-28T16:52:01.666Z,39.56
2018-06-28T16:57:01.677Z,39.63
2018-06-28T17:02:01.693Z,39.63
2018-06-28T17:07:01.637Z,43.41
2018-06-28T17:12:01.557Z,43.41
2018-06-28T17:22:01.628Z,43.81
2018-06-28T17:27:01.858Z,45.58
2018-06-28T17:42:01.677Z,46.38
2018-06-28T17:47:01.679Z,49.02
2018-06-28T17:57:01.696Z,52.48
2018-06-28T18:02:01.665Z,52.48
2018-06-28T18:07:01.658Z,55.26
2018-06-28T18:12:01.688Z,55.26
2018-06-28T18:17:01.721Z,55.97
2018-06-28T18:22:01.729Z,55.97
2018-06-28T18:27:01.669Z,57.19
2018-06-28T18:32:01.771Z,57.19
2018-06-28T18:37:01.699Z,58.08
2018-06-28T18:42:01.621Z,58.08
2018-06-28T18:47:01.630Z,62.49
2018-06-28T18:52:01.643Z,62.49
2018-06-28T18:57:01.615Z,64.63
2018-06-28T19:02:01.875Z,64.63
2018-06-28T19:07:01.641Z,65.11
2018-06-28T19:12:01.675Z,65.11
2018-06-28T19:17:01.632Z,66.33
2018-06-28T19:22:01.682Z,66.33
2018-06-28T19:27:01.613Z,67.92
2018-06-28T19:32:01.750Z,67.92
2018-06-28T19:37:01.689Z,69.68
2018-06-28T19:42:01.691Z,69.68
2018-06-28T19:47:01.659Z,70.46
2018-06-28T19:52:01.666Z,70.46
2018-06-28T19:57:01.673Z,70.89
2018-06-28T20:05:01.908Z,71.47
2018-06-28T20:15:01.604Z,71.90
2018-06-28T20:25:01.602Z,71.74
2018-06-28T20:50:01.717Z,71.97
2018-06-28T20:55:01.649Z,72.30
2018-06-28T21:00:01.635Z,72.30
2018-06-28T21:05:01.635Z,72.69
2018-06-28T21:10:01.968Z,72.69
2018-06-28T21:15:01.638Z,73.67
2018-06-28T21:20:01.697Z,73.67
2018-06-28T21:25:01.698Z,74.03
2018-06-28T21:30:01.638Z,74.03
2018-06-28T21:35:01.494Z,74.61
2018-06-28T21:40:01.539Z,74.61
2018-06-28T21:45:01.660Z,74.56
2018-06-28T21:50:01.648Z,74.56
2018-06-28T22:00:02.556Z,74.73
2018-06-28T22:05:01.563Z,75.09
2018-06-28T22:10:01.702Z,75.09
2018-06-28T22:15:01.512Z,75.74
2018-06-28T22:25:01.573Z,75.80
2018-06-28T22:30:01.673Z,75.80
2018-06-28T22:35:01.538Z,75.95
2018-06-28T22:45:01.676Z,76.32
2018-06-28T22:50:01.646Z,76.32
2018-06-28T22:55:01.513Z,77.00
2018-06-28T23:00:01.660Z,77.00
2018-06-28T23:05:01.528Z,76.61
2018-06-28T23:10:01.741Z,76.61
2018-06-28T23:15:01.672Z,77.05
2018-06-28T23:25:03.154Z,77.81
2018-06-28T23:30:01.654Z,77.81
2018-06-28T23:45:01.619Z,78.00
2018-06-28T23:55:01.598Z,78.28
